createdAt,value
2023-03-29T00:00:02.394Z,1.48
2023-03-29T00:02:32.041Z,1.72
2023-03-29T00:05:02.196Z,1.34
2023-03-29T00:07:30.287Z,1.70
2023-03-29T00:09:56.796Z,1.67
2023-03-29T00:12:23.478Z,1.82
2023-03-29T00:14:49.911Z,1.97
2023-03-29T00:17:16.474Z,1.65
2023-03-29T00:19:44.208Z,1.96
2023-03-29T00:22:11.258Z,1.79
2023-03-29T00:24:38.050Z,1.80
2023-03-29T00:27:04.840Z,1.85
2023-03-29T00:29:31.375Z,1.84
2023-03-29T00:32:01.039Z,1.99
2023-03-29T00:34:30.946Z,2.21
2023-03-29T00:36:58.330Z,2.09
2023-03-29T00:39:26.458Z,2.16
2023-03-29T00:41:53.238Z,2.03
2023-03-29T00:44:57.468Z,2.06
2023-03-29T00:47:32.470Z,2.11
2023-03-29T00:50:04.143Z,2.00
2023-03-29T00:52:32.198Z,1.99
2023-03-29T00:55:03.465Z,1.94
2023-03-29T00:57:31.397Z,2.06
2023-03-29T00:59:59.810Z,2.08
2023-03-29T01:02:34.850Z,1.92
2023-03-29T01:05:25.969Z,1.94
2023-03-29T01:08:18.317Z,2.12
2023-03-29T01:10:53.416Z,1.95
2023-03-29T01:13:27.497Z,2.17
2023-03-29T01:15:56.529Z,2.10
2023-03-29T01:18:23.171Z,2.21
2023-03-29T01:21:03.448Z,2.43
2023-03-29T01:23:51.158Z,2.27
2023-03-29T01:26:33.657Z,2.31
2023-03-29T01:29:07.590Z,2.27
2023-03-29T01:31:42.207Z,2.37
2023-03-29T01:34:27.672Z,2.41
2023-03-29T01:37:13.466Z,2.45
2023-03-29T01:39:40.081Z,2.26
2023-03-29T01:42:12.856Z,2.46
2023-03-29T01:44:42.196Z,2.09
2023-03-29T01:47:16.173Z,2.27
2023-03-29T01:49:54.375Z,2.22
2023-03-29T01:52:31.967Z,2.03
2023-03-29T01:55:05.518Z,2.22
2023-03-29T01:57:34.183Z,2.37
2023-03-29T02:00:15.122Z,2.23
2023-03-29T02:02:44.861Z,2.28
2023-03-29T02:05:16.504Z,2.37
2023-03-29T02:07:46.121Z,2.31
2023-03-29T02:10:14.478Z,2.39
2023-03-29T02:12:41.441Z,2.30
2023-03-29T02:15:13.390Z,2.39
2023-03-29T02:17:40.190Z,2.49
2023-03-29T02:20:22.579Z,2.45
2023-03-29T02:23:02.332Z,2.54
2023-03-29T02:25:29.603Z,2.47
2023-03-29T02:28:04.308Z,2.53
2023-03-29T02:30:56.380Z,2.29
2023-03-29T02:33:46.083Z,2.29
2023-03-29T02:36:18.937Z,2.26
2023-03-29T02:38:45.505Z,2.36
2023-03-29T02:41:13.093Z,2.26
2023-03-29T02:43:42.076Z,2.27
2023-03-29T02:46:10.962Z,2.08
2023-03-29T02:48:38.640Z,2.20
2023-03-29T02:51:20.030Z,2.22
2023-03-29T02:54:00.264Z,2.49
2023-03-29T02:56:43.343Z,2.42
2023-03-29T02:59:12.099Z,1.99
2023-03-29T03:01:39.782Z,2.39
2023-03-29T03:04:06.382Z,2.37
2023-03-29T03:06:32.735Z,2.36
2023-03-29T03:09:01.191Z,2.06
2023-03-29T03:11:28.150Z,2.06
2023-03-29T03:13:54.774Z,2.03
2023-03-29T03:16:34.706Z,2.27
2023-03-29T03:19:01.207Z,1.80
2023-03-29T03:21:31.074Z,1.89
2023-03-29T03:23:57.543Z,1.88
2023-03-29T03:26:25.002Z,2.04
2023-03-29T03:28:51.486Z,2.08
2023-03-29T03:31:19.613Z,1.90
2023-03-29T03:33:46.108Z,1.81
2023-03-29T03:36:15.521Z,1.71
2023-03-29T03:38:42.367Z,1.60
2023-03-29T03:41:09.136Z,1.70
2023-03-29T03:43:35.780Z,1.71
2023-03-29T03:46:02.435Z,2.00
2023-03-29T03:48:28.973Z,1.53
2023-03-29T03:51:04.908Z,1.71
2023-03-29T03:53:47.388Z,1.81
2023-03-29T03:56:14.342Z,1.66
2023-03-29T03:58:41.279Z,1.89
2023-03-29T04:01:08.950Z,1.80
2023-03-29T04:03:36.171Z,2.01
2023-03-29T04:06:04.043Z,1.64
2023-03-29T04:08:30.681Z,1.91
2023-03-29T04:11:02.829Z,2.00
2023-03-29T04:13:41.911Z,1.81
2023-03-29T04:16:08.698Z,1.80
2023-03-29T04:18:35.455Z,1.87
2023-03-29T04:21:02.640Z,1.92
2023-03-29T04:23:29.298Z,2.04
2023-03-29T04:25:56.735Z,2.03
2023-03-29T04:28:23.232Z,2.02
2023-03-29T04:30:55.842Z,2.09
2023-03-29T04:33:48.805Z,1.71
2023-03-29T04:43:32.021Z,2.10
2023-03-29T04:46:01.472Z,2.08
2023-03-29T04:48:30.373Z,2.13
2023-03-29T04:50:57.059Z,2.29
2023-03-29T04:53:29.810Z,2.57
2023-03-29T04:55:59.107Z,2.03
2023-03-29T04:58:31.656Z,2.36
2023-03-29T05:00:59.469Z,2.17
2023-03-29T05:03:27.062Z,2.12
2023-03-29T05:05:53.724Z,2.37
2023-03-29T05:08:20.757Z,2.21
2023-03-29T05:10:57.016Z,2.23
2023-03-29T05:17:49.825Z,2.52
2023-03-29T05:20:29.980Z,2.32
2023-03-29T05:23:34.044Z,2.60
2023-03-29T05:26:00.606Z,2.74
2023-03-29T05:28:27.269Z,2.80
2023-03-29T05:31:01.387Z,3.14
2023-03-29T05:33:39.161Z,3.02
2023-03-29T05:36:19.065Z,3.07
2023-03-29T05:38:46.879Z,3.08
2023-03-29T05:41:14.108Z,3.04
2023-03-29T05:43:40.531Z,3.12
2023-03-29T05:46:07.709Z,3.14
2023-03-29T05:48:47.353Z,3.17
2023-03-29T05:51:13.866Z,3.27
2023-03-29T05:53:47.798Z,3.32
2023-03-29T05:56:17.419Z,3.50
2023-03-29T06:02:38.792Z,3.75
2023-03-29T06:12:28.199Z,4.12
2023-03-29T06:14:55.197Z,4.21
2023-03-29T06:17:24.915Z,4.26
2023-03-29T06:19:53.184Z,4.21
2023-03-29T06:22:19.566Z,4.46
2023-03-29T06:24:46.352Z,4.38
2023-03-29T06:27:12.682Z,4.64
2023-03-29T06:29:45.771Z,4.74
2023-03-29T06:32:12.660Z,4.58
2023-03-29T06:34:39.085Z,4.76
2023-03-29T06:37:05.992Z,4.65
2023-03-29T06:39:37.932Z,4.55
2023-03-29T06:42:20.226Z,4.80
2023-03-29T06:45:07.292Z,4.96
2023-03-29T06:48:02.325Z,4.91
2023-03-29T06:50:32.332Z,5.10
2023-03-29T06:52:58.817Z,5.11
2023-03-29T06:55:38.794Z,5.26
2023-03-29T06:58:09.336Z,5.24
2023-03-29T07:00:49.087Z,5.52
2023-03-29T07:03:20.749Z,5.39
2023-03-29T07:05:47.576Z,5.49
2023-03-29T07:08:16.457Z,5.24
2023-03-29T07:10:44.383Z,5.55
2023-03-29T07:13:17.441Z,5.40
2023-03-29T07:15:44.115Z,5.53
2023-03-29T07:18:11.045Z,5.53
2023-03-29T07:20:39.085Z,5.39
2023-03-29T07:23:06.007Z,5.75
2023-03-29T07:25:34.011Z,5.38
2023-03-29T07:28:00.393Z,5.68
2023-03-29T07:30:32.141Z,5.90
2023-03-29T07:32:59.273Z,6.23
2023-03-29T07:35:26.833Z,6.17
2023-03-29T07:37:55.141Z,6.07
2023-03-29T07:40:24.886Z,6.09
2023-03-29T07:42:55.243Z,6.19
2023-03-29T07:45:26.467Z,5.96
2023-03-29T07:47:58.512Z,6.26
2023-03-29T07:50:32.723Z,6.62
2023-03-29T07:53:02.980Z,6.62
2023-03-29T07:55:33.304Z,6.81
2023-03-29T07:57:59.692Z,6.57
2023-03-29T08:00:26.404Z,6.49
2023-03-29T08:02:55.817Z,6.76
2023-03-29T08:05:37.799Z,7.00
2023-03-29T08:08:25.775Z,6.69
2023-03-29T08:10:53.001Z,6.71
2023-03-29T08:13:35.644Z,6.90
2023-03-29T08:16:57.261Z,6.79
2023-03-29T08:19:23.799Z,7.00
2023-03-29T08:21:50.703Z,6.69
2023-03-29T08:24:19.752Z,7.05
2023-03-29T08:26:50.581Z,7.05
2023-03-29T08:29:17.025Z,6.91
2023-03-29T08:31:44.587Z,7.35
2023-03-29T08:37:09.910Z,7.92
2023-03-29T08:39:36.459Z,8.24
2023-03-29T08:42:21.626Z,7.89
2023-03-29T08:45:13.138Z,7.56
2023-03-29T08:47:49.972Z,7.24
2023-03-29T08:50:26.324Z,7.45
2023-03-29T08:53:07.907Z,7.65
2023-03-29T08:55:42.220Z,7.78
2023-03-29T08:58:13.683Z,7.46
2023-03-29T09:00:44.812Z,7.77
2023-03-29T09:03:17.675Z,8.25
2023-03-29T09:05:50.936Z,8.45
2023-03-29T09:08:18.687Z,8.01
2023-03-29T09:10:52.438Z,8.56
2023-03-29T09:13:19.560Z,8.33
2023-03-29T09:15:52.189Z,8.28
2023-03-29T09:18:26.874Z,7.99
2023-03-29T09:20:57.143Z,8.19
2023-03-29T09:23:26.991Z,8.31
2023-03-29T09:26:15.288Z,8.14
2023-03-29T09:29:00.437Z,8.23
2023-03-29T09:31:33.641Z,8.61
2023-03-29T09:34:03.900Z,8.17
2023-03-29T09:36:34.336Z,8.28
2023-03-29T09:39:00.990Z,8.60
2023-03-29T09:41:32.710Z,8.98
2023-03-29T09:44:01.771Z,8.72
2023-03-29T09:46:37.423Z,9.10
2023-03-29T09:49:06.692Z,9.43
2023-03-29T09:51:33.969Z,8.77
2023-03-29T09:54:01.149Z,8.84
2023-03-29T09:56:27.824Z,8.66
2023-03-29T09:58:54.435Z,8.77
2023-03-29T10:01:39.644Z,9.01
2023-03-29T10:04:07.564Z,8.26
2023-03-29T10:06:34.603Z,8.33
2023-03-29T10:09:01.278Z,8.34
2023-03-29T10:11:31.001Z,8.61
2023-03-29T10:14:01.890Z,8.50
2023-03-29T10:16:38.853Z,8.88
2023-03-29T10:19:33.021Z,9.04
2023-03-29T10:22:00.681Z,8.67
2023-03-29T10:24:27.397Z,8.33
2023-03-29T10:26:55.786Z,8.29
2023-03-29T10:29:25.696Z,8.53
2023-03-29T10:31:54.867Z,8.67
2023-03-29T10:34:26.022Z,8.83
2023-03-29T10:36:58.703Z,8.99
2023-03-29T10:39:27.662Z,9.39
2023-03-29T10:41:54.154Z,8.82
2023-03-29T10:44:39.796Z,8.88
2023-03-29T10:47:34.657Z,8.87
2023-03-29T10:50:04.589Z,8.78
2023-03-29T10:52:31.499Z,8.90
2023-03-29T10:54:59.359Z,8.69
2023-03-29T10:58:01.843Z,9.00
2023-03-29T11:00:54.227Z,9.17
2023-03-29T11:03:25.911Z,8.72
2023-03-29T11:06:14.880Z,8.54
2023-03-29T11:08:48.986Z,8.46
2023-03-29T11:11:41.180Z,8.67
2023-03-29T11:14:23.033Z,8.78
2023-03-29T11:16:55.837Z,9.12
2023-03-29T11:19:34.828Z,8.94
2023-03-29T11:22:19.977Z,9.10
2023-03-29T11:25:06.592Z,9.09
2023-03-29T11:27:47.700Z,9.43
2023-03-29T11:30:29.094Z,9.42
2023-03-29T11:33:15.189Z,9.47
2023-03-29T11:36:01.816Z,9.45
2023-03-29T11:41:54.216Z,10.17
2023-03-29T11:44:24.350Z,9.96
2023-03-29T11:47:44.807Z,10.16
2023-03-29T11:50:30.545Z,9.96
2023-03-29T11:53:14.834Z,10.43
2023-03-29T11:56:19.985Z,10.26
2023-03-29T11:58:52.723Z,10.27
2023-03-29T12:01:28.662Z,9.98
2023-03-29T12:04:26.569Z,10.15
2023-03-29T12:07:10.871Z,9.78
2023-03-29T12:09:58.190Z,10.45
2023-03-29T12:15:28.054Z,10.13
2023-03-29T12:18:07.094Z,10.14
2023-03-29T12:20:47.699Z,10.36
2023-03-29T12:23:15.834Z,9.63
2023-03-29T12:26:11.244Z,9.84
2023-03-29T12:28:56.958Z,9.75
2023-03-29T12:31:42.145Z,9.61
2023-03-29T12:34:14.753Z,9.78
2023-03-29T12:36:53.585Z,9.81
2023-03-29T12:39:21.024Z,9.99
2023-03-29T12:41:54.515Z,9.79
2023-03-29T12:44:27.321Z,9.25
2023-03-29T12:47:00.665Z,9.40
2023-03-29T12:49:27.076Z,9.48
2023-03-29T12:51:55.175Z,9.62
2023-03-29T12:54:32.735Z,9.68
2023-03-29T12:57:18.354Z,9.37
2023-03-29T12:59:46.993Z,9.07
2023-03-29T13:02:14.163Z,9.87
2023-03-29T13:04:43.822Z,9.66
2023-03-29T13:07:22.695Z,9.39
2023-03-29T13:09:51.314Z,9.65
2023-03-29T13:12:33.589Z,9.72
2023-03-29T13:15:05.938Z,9.94
2023-03-29T13:17:51.533Z,9.84
2023-03-29T13:20:37.515Z,9.67
2023-03-29T13:23:22.630Z,9.70
2023-03-29T13:26:11.563Z,9.94
2023-03-29T13:28:49.030Z,9.95
2023-03-29T13:31:35.044Z,9.79
2023-03-29T13:34:05.540Z,9.76
2023-03-29T13:36:41.135Z,9.51
2023-03-29T13:39:14.238Z,9.73
2023-03-29T13:41:40.855Z,9.61
2023-03-29T13:44:26.594Z,9.56
2023-03-29T13:47:12.498Z,9.67
2023-03-29T13:50:10.271Z,9.84
2023-03-29T13:53:16.171Z,9.74
2023-03-29T13:56:09.135Z,9.69
2023-03-29T13:58:47.334Z,9.90
2023-03-29T14:01:18.930Z,9.97
2023-03-29T14:04:28.891Z,9.51
2023-03-29T14:07:16.322Z,9.27
2023-03-29T14:10:07.045Z,9.28
2023-03-29T14:12:56.870Z,9.46
2023-03-29T14:15:47.222Z,9.59
2023-03-29T14:18:39.756Z,9.59
2023-03-29T14:24:10.435Z,9.11
2023-03-29T14:27:00.145Z,9.23
2023-03-29T14:30:07.089Z,9.39
2023-03-29T14:32:52.937Z,9.15
2023-03-29T14:35:57.216Z,9.40
2023-03-29T14:38:40.236Z,9.17
2023-03-29T14:47:30.415Z,9.09
2023-03-29T14:50:06.118Z,9.40
2023-03-29T14:52:41.923Z,9.44
2023-03-29T14:55:09.934Z,9.34
2023-03-29T14:57:36.676Z,9.53
2023-03-29T15:00:59.223Z,9.79
2023-03-29T15:03:47.613Z,9.83
2023-03-29T15:06:24.818Z,9.94
2023-03-29T15:09:02.098Z,10.02
2023-03-29T15:11:31.730Z,9.60
2023-03-29T15:14:08.791Z,9.73
2023-03-29T15:16:38.856Z,9.84
2023-03-29T15:19:15.645Z,9.80
2023-03-29T15:21:43.184Z,9.92
2023-03-29T15:24:25.730Z,9.52
2023-03-29T15:27:18.669Z,9.38
2023-03-29T15:29:51.738Z,9.16
2023-03-29T15:39:31.851Z,9.17
2023-03-29T15:41:58.518Z,9.25
2023-03-29T15:44:29.389Z,9.30
2023-03-29T15:46:57.745Z,9.10
2023-03-29T15:49:24.831Z,9.20
2023-03-29T15:58:51.500Z,9.41
2023-03-29T16:01:39.125Z,9.52
2023-03-29T16:04:05.639Z,9.45
2023-03-29T16:06:32.630Z,9.60
2023-03-29T16:08:59.876Z,9.65
2023-03-29T16:11:28.477Z,9.34
2023-03-29T16:13:55.479Z,9.30
2023-03-29T16:16:22.413Z,9.39
2023-03-29T16:18:48.931Z,9.19
2023-03-29T16:21:21.377Z,9.52
2023-03-29T16:24:00.892Z,9.32
2023-03-29T16:26:27.365Z,9.64
2023-03-29T16:28:54.014Z,9.50
2023-03-29T16:31:23.670Z,9.63
2023-03-29T16:33:50.618Z,9.54
2023-03-29T16:36:17.114Z,9.38
2023-03-29T16:38:43.748Z,9.51
2023-03-29T16:41:14.061Z,9.38
2023-03-29T16:43:40.931Z,9.16
2023-03-29T16:46:09.347Z,9.04
2023-03-29T16:48:36.360Z,9.20
2023-03-29T16:51:03.579Z,9.15
2023-03-29T16:53:30.357Z,9.22
2023-03-29T16:55:57.538Z,9.23
2023-03-29T16:58:24.373Z,9.25
2023-03-29T17:00:53.839Z,9.41
2023-03-29T17:03:21.134Z,9.38
2023-03-29T17:05:48.034Z,9.45
2023-03-29T17:08:14.418Z,9.44
2023-03-29T17:10:41.418Z,9.40
2023-03-29T17:13:15.512Z,9.09
2023-03-29T17:15:42.081Z,9.13
2023-03-29T17:18:17.575Z,9.17
2023-03-29T17:24:26.239Z,9.10
2023-03-29T17:27:30.770Z,9.19
2023-03-29T17:36:43.538Z,9.13
2023-03-29T17:39:20.502Z,9.20
2023-03-29T17:42:11.007Z,9.02
2023-03-29T17:44:47.140Z,9.13
2023-03-29T17:47:22.576Z,9.21
2023-03-29T17:49:59.483Z,8.90
2023-03-29T17:52:49.000Z,9.07
2023-03-29T17:55:48.436Z,9.15
2023-03-29T17:58:33.330Z,9.25
2023-03-29T18:01:22.137Z,9.19
2023-03-29T18:07:18.571Z,8.90
2023-03-29T18:10:21.045Z,9.02
2023-03-29T18:13:01.923Z,9.12
2023-03-29T18:16:07.190Z,9.17
2023-03-29T18:18:52.458Z,9.11
2023-03-29T18:24:11.493Z,9.20
2023-03-29T18:30:47.522Z,9.03
2023-03-29T18:33:57.437Z,8.92
2023-03-29T18:54:32.307Z,8.90
2023-03-29T19:10:22.952Z,8.80
2023-03-29T19:16:51.886Z,8.74
2023-03-29T19:50:06.317Z,8.53
2023-03-29T19:53:48.695Z,8.81
2023-03-29T19:59:39.277Z,8.56
2023-03-29T20:02:39.170Z,8.76
2023-03-29T20:09:12.764Z,8.89
2023-03-29T20:15:55.449Z,8.91
2023-03-29T20:18:52.805Z,8.92
2023-03-29T20:24:59.290Z,8.85
2023-03-29T20:27:37.873Z,8.76
2023-03-29T20:30:31.170Z,8.63
2023-03-29T20:40:05.501Z,8.82
2023-03-29T20:42:34.437Z,8.79
2023-03-29T20:45:51.594Z,8.84
2023-03-29T20:48:21.747Z,8.74
2023-03-29T20:50:48.439Z,8.63
2023-03-29T20:53:15.276Z,8.56
2023-03-29T20:55:42.795Z,8.76
2023-03-29T20:58:12.383Z,8.74
2023-03-29T21:00:47.614Z,8.75
2023-03-29T21:03:14.311Z,8.71
2023-03-29T21:05:40.929Z,8.70
2023-03-29T21:08:08.625Z,8.70
2023-03-29T21:10:36.682Z,8.84
2023-03-29T21:13:05.960Z,8.87
2023-03-29T21:15:33.792Z,8.73
2023-03-29T21:18:08.961Z,8.82
2023-03-29T21:21:05.157Z,8.80
2023-03-29T21:23:40.136Z,8.68
2023-03-29T21:26:09.547Z,8.64
2023-03-29T21:28:37.617Z,8.79
2023-03-29T21:31:07.721Z,8.61
2023-03-29T21:33:34.348Z,8.69
2023-03-29T21:36:01.037Z,8.78
2023-03-29T21:38:27.823Z,8.68
2023-03-29T21:40:54.374Z,8.62
2023-03-29T21:43:21.426Z,8.61
2023-03-29T21:45:48.458Z,8.73
2023-03-29T21:48:14.896Z,8.64
2023-03-29T21:50:41.408Z,8.63
2023-03-29T21:53:07.760Z,8.64
2023-03-29T21:55:36.238Z,8.53
2023-03-29T21:58:03.719Z,8.71
2023-03-29T22:00:56.642Z,8.62
2023-03-29T22:03:35.181Z,8.55
2023-03-29T22:06:02.608Z,8.70
2023-03-29T22:08:29.234Z,8.73
2023-03-29T22:10:56.939Z,8.69
2023-03-29T22:13:24.536Z,8.72
2023-03-29T22:15:55.175Z,8.81
2023-03-29T22:18:21.664Z,8.82
2023-03-29T22:20:48.506Z,8.88
2023-03-29T22:23:15.479Z,8.88
2023-03-29T22:25:41.873Z,8.77
2023-03-29T22:28:08.337Z,8.75
2023-03-29T22:30:34.783Z,8.62
2023-03-29T22:33:01.273Z,8.76
2023-03-29T22:35:27.703Z,8.76
2023-03-29T22:37:54.481Z,8.75
2023-03-29T22:40:20.877Z,8.74
2023-03-29T22:42:47.236Z,8.78
2023-03-29T22:45:14.230Z,8.76
2023-03-29T22:47:40.927Z,8.58
2023-03-29T22:50:07.642Z,8.59
2023-03-29T22:52:33.985Z,8.58
2023-03-29T22:55:03.210Z,8.75
2023-03-29T22:57:29.621Z,8.74
2023-03-29T22:59:56.097Z,8.74
2023-03-29T23:02:22.916Z,8.79
2023-03-29T23:04:49.426Z,8.80
2023-03-29T23:07:16.173Z,8.84
2023-03-29T23:09:42.610Z,8.60
2023-03-29T23:12:10.941Z,8.56
2023-03-29T23:18:30.429Z,8.82
2023-03-29T23:20:57.687Z,8.83
2023-03-29T23:23:25.315Z,8.82
2023-03-29T23:25:52.859Z,8.58
2023-03-29T23:28:21.755Z,8.63
2023-03-29T23:30:58.661Z,8.72
2023-03-29T23:33:25.744Z,8.73
2023-03-29T23:35:52.901Z,8.72
2023-03-29T23:38:19.429Z,8.64
2023-03-29T23:40:52.040Z,8.61
2023-03-29T23:43:18.381Z,8.57
2023-03-29T23:45:45.395Z,8.60
2023-03-29T23:48:12.031Z,8.62
2023-03-29T23:50:38.450Z,8.54
2023-03-29T23:53:05.141Z,8.62
2023-03-29T23:55:32.204Z,8.59
2023-03-29T23:57:58.532Z,8.57
